Time;durP1;ratioP1;P1;durP2;ratioP2;P2;SDS_P1;SDS_P2;PMS_P1;PMS_P2;Temp;Humidity;BMP_temperature;BMP_pressure;BME280_temperature;BME280_humidity;BME280_pressure;Samples;Min_cycle;Max_cycle;Signal;HPM_P1;HPM_P2
2021/12/25 00:02:22;;;;;;;4.17;3.90;;;-3.20;1.00;;;;;;6334832;27;20499;-57
2021/12/25 00:05:26;;;;;;;4.20;4.00;;;-3.00;1.00;;;;;;6334302;28;20227;-56
2021/12/25 00:08:31;;;;;;;4.00;3.80;;;-3.20;1.00;;;;;;6333447;28;20244;-56
2021/12/25 00:11:34;;;;;;;3.67;3.60;;;-3.40;1.00;;;;;;6334848;27;20365;-57
2021/12/25 00:14:37;;;;;;;3.80;3.70;;;-3.10;1.00;;;;;;6348746;27;20759;-57
2021/12/25 00:17:39;;;;;;;3.80;3.70;;;-3.10;1.00;;;;;;6357919;27;20458;-56
2021/12/25 00:20:44;;;;;;;3.70;3.60;;;-3.40;1.00;;;;;;6353369;27;20235;-56
2021/12/25 00:23:49;;;;;;;4.00;3.93;;;-3.40;1.00;;;;;;6333717;28;20232;-56
2021/12/25 00:26:57;;;;;;;3.90;3.80;;;-3.20;1.00;;;;;;6334205;28;20236;-57
2021/12/25 00:30:13;;;;;;;4.20;4.10;;;-3.30;1.00;;;;;;6334628;28;20385;-56
2021/12/25 00:33:33;;;;;;;4.20;4.00;;;-3.30;1.00;;;;;;6333654;27;20232;-57
2021/12/25 00:36:37;;;;;;;4.20;4.10;;;-3.20;1.00;;;;;;6333842;27;20354;-56
2021/12/25 00:39:42;;;;;;;4.00;3.90;;;-3.20;1.00;;;;;;6335095;28;20230;-57
2021/12/25 00:42:45;;;;;;;3.80;3.70;;;-3.60;1.00;;;;;;6334228;28;20311;-57
2021/12/25 00:45:48;;;;;;;3.80;3.80;;;-3.50;1.00;;;;;;6357929;27;20235;-56
2021/12/25 00:48:51;;;;;;;3.80;3.80;;;-3.30;1.00;;;;;;6356722;27;20235;-57
2021/12/25 00:51:56;;;;;;;4.10;3.90;;;-3.30;1.00;;;;;;6333365;27;20388;-60
2021/12/25 00:55:00;;;;;;;3.77;3.67;;;-3.30;1.00;;;;;;6325362;28;20231;-57
2021/12/25 00:58:04;;;;;;;3.80;3.70;;;-3.60;1.00;;;;;;6332671;28;20255;-58
2021/12/25 01:01:07;;;;;;;3.83;3.77;;;-3.30;1.00;;;;;;6342130;27;20296;-56
2021/12/25 01:04:10;;;;;;;3.90;3.80;;;-3.40;1.00;;;;;;6358897;27;20326;-56
2021/12/25 01:07:14;;;;;;;4.07;3.87;;;-3.60;1.00;;;;;;6353238;27;20232;-57
2021/12/25 01:10:22;;;;;;;4.07;3.93;;;-3.50;1.00;;;;;;6333531;28;20413;-56
2021/12/25 01:13:28;;;;;;;4.60;4.00;;;-3.30;1.00;;;;;;6333272;28;20369;-57
2021/12/25 01:16:59;;;;;;;3.60;3.50;;;-3.30;1.00;;;;;;6347320;27;20231;-62
2021/12/25 01:20:21;;;;;;;4.07;3.97;;;-3.60;1.00;;;;;;6364597;27;20245;-56
2021/12/25 01:27:07;;;;;;;3.80;3.80;;;-3.60;1.00;;;;;;6322135;28;20236;-53
2021/12/25 01:30:15;;;;;;;4.33;4.23;;;-3.70;1.00;;;;;;6334502;28;20324;-57
2021/12/25 01:36:58;;;;;;;3.73;3.63;;;-3.30;1.00;;;;;;6330586;28;20724;-56
2021/12/25 01:40:18;;;;;;;3.97;3.87;;;-3.50;1.00;;;;;;6333523;28;20388;-55
2021/12/25 01:50:19;;;;;;;3.90;3.57;;;-3.70;1.00;;;;;;6303083;28;20311;-57
2021/12/25 01:53:22;;;;;;;3.70;3.60;;;-3.70;1.00;;;;;;6308960;28;20661;-56
2021/12/25 01:56:27;;;;;;;3.90;3.80;;;-3.80;1.00;;;;;;6336840;28;20240;-57
2021/12/25 01:59:30;;;;;;;3.37;3.37;;;-3.60;1.00;;;;;;6337891;27;20236;-56
2021/12/25 02:02:33;;;;;;;3.93;3.83;;;-3.80;1.00;;;;;;6337285;27;20322;-58
2021/12/25 02:05:37;;;;;;;4.30;4.00;;;-3.70;1.00;;;;;;6337825;27;20372;-56
2021/12/25 02:08:55;;;;;;;3.70;3.70;;;-3.50;1.00;;;;;;6338169;28;20232;-56
2021/12/25 02:12:00;;;;;;;4.00;3.80;;;-3.70;1.00;;;;;;6337383;28;20319;-56
2021/12/25 02:15:09;;;;;;;3.80;3.80;;;-3.70;1.00;;;;;;6342311;27;20238;-55
2021/12/25 02:18:17;;;;;;;4.13;3.93;;;-3.80;1.00;;;;;;6362321;27;20780;-56
2021/12/25 02:21:25;;;;;;;3.80;3.70;;;-3.90;1.00;;;;;;6363218;27;20775;-56
2021/12/25 02:24:29;;;;;;;4.40;4.13;;;-3.80;1.00;;;;;;6361433;27;20306;-56
2021/12/25 02:27:31;;;;;;;3.93;3.83;;;-3.90;1.00;;;;;;6352633;27;20239;-57
2021/12/25 02:30:35;;;;;;;3.70;3.60;;;-3.80;1.00;;;;;;6346952;27;20223;-53
2021/12/25 02:33:38;;;;;;;3.63;3.63;;;-3.90;1.00;;;;;;6337338;28;20833;-55
2021/12/25 02:36:43;;;;;;;3.77;3.77;;;-3.80;1.00;;;;;;6337297;27;20252;-57
2021/12/25 02:39:46;;;;;;;4.47;4.00;;;-3.70;1.00;;;;;;6337061;27;20315;-56
2021/12/25 02:42:49;;;;;;;3.80;3.60;;;-3.90;1.00;;;;;;6337362;27;20459;-57
2021/12/25 02:45:54;;;;;;;3.90;3.90;;;-3.90;1.00;;;;;;6360665;27;20248;-57
2021/12/25 02:48:59;;;;;;;3.90;3.90;;;-4.10;1.00;;;;;;6357594;27;20994;-56
2021/12/25 02:52:06;;;;;;;4.03;3.93;;;-3.90;1.00;;;;;;6362869;27;20523;-60
2021/12/25 02:55:09;;;;;;;3.77;3.77;;;-3.90;1.00;;;;;;6362063;27;20231;-56
2021/12/25 02:58:12;;;;;;;4.97;4.77;;;-4.00;1.00;;;;;;6339269;27;20250;-57
2021/12/25 03:01:18;;;;;;;3.47;3.47;;;-4.00;1.00;;;;;;6336876;27;20260;-55
2021/12/25 03:04:21;;;;;;;4.03;3.90;;;-4.10;1.00;;;;;;6336098;27;20242;-56
2021/12/25 03:07:26;;;;;;;4.00;3.90;;;-4.00;1.00;;;;;;6335944;27;20395;-57
2021/12/25 03:10:31;;;;;;;4.23;3.87;;;-4.00;1.00;;;;;;6332346;27;20235;-57
2021/12/25 03:13:37;;;;;;;4.00;3.90;;;-3.90;1.00;;;;;;6361608;27;20772;-56
2021/12/25 03:16:41;;;;;;;3.90;3.80;;;-4.00;1.00;;;;;;6362092;27;20227;-57
2021/12/25 03:19:43;;;;;;;3.80;3.80;;;-4.00;1.00;;;;;;6351571;27;20389;-57
2021/12/25 03:22:47;;;;;;;4.00;3.80;;;-3.90;1.00;;;;;;6361293;27;20235;-56
2021/12/25 03:25:56;;;;;;;4.10;3.90;;;-4.00;1.00;;;;;;6361459;27;20670;-56
2021/12/25 03:29:02;;;;;;;3.70;3.70;;;-3.80;1.00;;;;;;6351530;27;20305;-57
2021/12/25 03:32:06;;;;;;;4.37;4.17;;;-4.00;1.00;;;;;;6336302;27;20317;-58
2021/12/25 03:35:09;;;;;;;4.10;3.93;;;-4.00;1.00;;;;;;6335634;28;20312;-57
2021/12/25 03:38:17;;;;;;;4.07;3.90;;;-3.90;1.00;;;;;;6335618;28;20723;-56
2021/12/25 03:41:21;;;;;;;3.90;3.80;;;-3.90;1.00;;;;;;6336592;27;20236;-57
2021/12/25 03:44:24;;;;;;;4.10;4.00;;;-4.10;1.00;;;;;;6348716;27;20712;-57
2021/12/25 03:47:31;;;;;;;3.90;3.80;;;-4.00;1.00;;;;;;6359787;27;20413;-57
2021/12/25 04:00:37;;;;;;;4.10;4.00;;;-4.20;1.00;;;;;;6339383;27;20258;-57
2021/12/25 04:03:47;;;;;;;4.03;3.83;;;-4.10;1.00;;;;;;6335095;27;20235;-57
2021/12/25 04:06:57;;;;;;;4.17;3.77;;;-4.10;1.00;;;;;;6334818;27;20509;-56
2021/12/25 04:10:02;;;;;;;3.57;3.57;;;-4.20;1.00;;;;;;6335049;28;20577;-57
2021/12/25 04:13:07;;;;;;;3.90;3.70;;;-4.10;1.00;;;;;;6334642;27;23077;-56
2021/12/25 04:16:10;;;;;;;4.10;4.00;;;-4.10;1.00;;;;;;6353525;27;20368;-56
2021/12/25 04:19:13;;;;;;;3.60;3.60;;;-4.40;1.00;;;;;;6360474;27;20655;-56
2021/12/25 04:22:20;;;;;;;3.67;3.57;;;-4.20;1.00;;;;;;6359126;27;20307;-56
2021/12/25 04:25:27;;;;;;;4.00;3.90;;;-4.10;1.00;;;;;;6360436;27;20235;-56
2021/12/25 04:28:38;;;;;;;4.10;3.90;;;-4.20;1.00;;;;;;6360043;27;20655;-56
2021/12/25 04:32:17;;;;;;;3.90;3.80;;;-4.20;1.00;;;;;;6335377;27;20246;-57
2021/12/25 04:49:16;;;;;;;4.40;4.30;;;-4.50;1.00;;;;;;6349450;27;20289;-57
2021/12/25 05:02:25;;;;;;;4.00;3.80;;;-4.30;1.00;;;;;;6347634;27;21168;-56
2021/12/25 05:05:29;;;;;;;4.23;4.10;;;-4.40;1.00;;;;;;6350713;27;20227;-57
2021/12/25 05:08:32;;;;;;;3.97;3.87;;;-4.40;1.00;;;;;;6347275;27;20629;-57
2021/12/25 05:11:35;;;;;;;3.80;3.70;;;-4.30;1.00;;;;;;6344607;27;20612;-57
2021/12/25 05:14:39;;;;;;;4.37;4.20;;;-4.20;1.00;;;;;;6358078;27;20333;-56
2021/12/25 05:17:42;;;;;;;3.83;3.83;;;-4.40;1.00;;;;;;6357590;27;20733;-56
2021/12/25 05:20:45;;;;;;;4.10;4.00;;;-4.20;1.00;;;;;;6361240;27;20614;-56
2021/12/25 05:23:48;;;;;;;4.23;4.03;;;-4.30;1.00;;;;;;6362493;27;20267;-56
2021/12/25 05:26:56;;;;;;;4.60;4.37;;;-4.30;1.00;;;;;;6360711;27;20359;-56
2021/12/25 05:30:00;;;;;;;3.60;3.60;;;-4.50;1.00;;;;;;6363237;27;20281;-56
2021/12/25 05:33:03;;;;;;;3.90;3.70;;;-4.20;1.00;;;;;;6360457;27;20255;-56
2021/12/25 05:36:06;;;;;;;3.90;3.80;;;-4.50;1.00;;;;;;6356275;27;20289;-56
2021/12/25 05:39:12;;;;;;;4.27;4.17;;;-4.40;1.00;;;;;;6362353;27;20304;-56
2021/12/25 05:42:15;;;;;;;4.30;4.10;;;-4.30;1.00;;;;;;6361732;27;20224;-56
2021/12/25 05:45:19;;;;;;;3.63;3.63;;;-4.30;1.00;;;;;;6362215;27;20235;-57
2021/12/25 05:48:22;;;;;;;4.40;4.10;;;-4.40;1.00;;;;;;6357957;27;20235;-55
2021/12/25 05:51:25;;;;;;;4.13;4.00;;;-4.30;1.00;;;;;;6364470;27;20408;-56
2021/12/25 05:54:27;;;;;;;3.70;3.70;;;-4.40;1.00;;;;;;6362162;27;20504;-57
2021/12/25 05:57:30;;;;;;;4.43;4.33;;;-4.30;1.00;;;;;;6358989;27;20515;-56
2021/12/25 06:00:35;;;;;;;4.40;4.00;;;-4.20;1.00;;;;;;6361240;27;20299;-57
2021/12/25 06:03:38;;;;;;;4.83;4.47;;;-4.30;1.00;;;;;;6363047;27;20413;-56
2021/12/25 06:06:41;;;;;;;5.00;4.70;;;-4.30;1.00;;;;;;6362844;27;20375;-56
2021/12/25 06:09:44;;;;;;;5.03;4.60;;;-4.40;1.00;;;;;;6354393;27;20270;-58
2021/12/25 06:12:47;;;;;;;4.60;4.50;;;-4.40;1.10;;;;;;6362803;27;20279;-56
2021/12/25 06:15:52;;;;;;;4.57;4.37;;;-4.40;1.00;;;;;;6360887;27;20532;-56
2021/12/25 06:18:55;;;;;;;4.00;3.90;;;-4.50;1.20;;;;;;6360263;27;20235;-57
2021/12/25 06:21:58;;;;;;;4.30;4.20;;;-4.70;1.00;;;;;;6361306;27;20315;-56
2021/12/25 06:25:01;;;;;;;4.70;4.40;;;-4.40;1.00;;;;;;6353699;27;20246;-57
2021/12/25 06:28:04;;;;;;;4.30;4.20;;;-4.50;1.80;;;;;;6362258;27;20405;-57
2021/12/25 06:31:08;;;;;;;4.43;4.27;;;-4.50;1.40;;;;;;6360656;27;20715;-56
2021/12/25 06:34:11;;;;;;;4.37;4.27;;;-4.70;1.00;;;;;;6354596;27;20678;-56
2021/12/25 06:37:14;;;;;;;4.10;4.00;;;-4.70;1.70;;;;;;6363784;27;20235;-57
2021/12/25 06:40:19;;;;;;;3.87;3.83;;;-4.60;1.90;;;;;;6363582;27;22447;-57
2021/12/25 06:43:21;;;;;;;3.90;3.90;;;-4.50;1.00;;;;;;6358301;27;20251;-57
2021/12/25 06:46:25;;;;;;;4.10;3.93;;;-4.50;1.80;;;;;;6353840;27;20275;-58
2021/12/25 06:49:28;;;;;;;3.80;3.80;;;-4.60;1.90;;;;;;6361181;27;20652;-58
2021/12/25 06:52:31;;;;;;;4.23;4.13;;;-4.40;1.30;;;;;;6358552;27;20799;-58
2021/12/25 06:55:34;;;;;;;4.53;3.80;;;-4.60;1.10;;;;;;6360952;27;20235;-58
2021/12/25 06:58:36;;;;;;;3.90;3.80;;;-4.50;2.20;;;;;;6361037;27;20809;-57
2021/12/25 07:01:41;;;;;;;4.43;4.23;;;-4.60;2.40;;;;;;6358214;27;20632;-58
2021/12/25 07:04:44;;;;;;;4.40;4.20;;;-4.80;1.60;;;;;;6360631;27;20641;-51
2021/12/25 07:07:47;;;;;;;4.30;4.20;;;-4.80;2.60;;;;;;6358586;27;20287;-55
2021/12/25 07:10:50;;;;;;;4.30;4.20;;;-4.70;3.00;;;;;;6361111;27;20825;-57
2021/12/25 07:13:53;;;;;;;3.97;3.90;;;-4.80;3.50;;;;;;6359883;27;20834;-58
2021/12/25 07:16:57;;;;;;;4.30;4.30;;;-4.80;3.00;;;;;;6358066;27;20752;-58
2021/12/25 07:20:00;;;;;;;4.07;3.90;;;-4.60;3.40;;;;;;6361415;27;20234;-57
2021/12/25 07:23:03;;;;;;;3.80;3.67;;;-4.50;4.10;;;;;;6357895;27;20234;-63
2021/12/25 07:26:06;;;;;;;4.43;4.33;;;-4.70;4.00;;;;;;6359344;27;20310;-57
2021/12/25 07:29:09;;;;;;;4.00;3.90;;;-4.50;4.10;;;;;;6360214;27;20695;-57
2021/12/25 07:32:13;;;;;;;4.23;4.13;;;-4.70;4.10;;;;;;6356509;27;20783;-58
2021/12/25 07:35:16;;;;;;;3.83;3.73;;;-4.70;3.50;;;;;;6357261;27;20229;-58
2021/12/25 07:38:20;;;;;;;4.47;4.17;;;-4.70;3.40;;;;;;6358645;27;20231;-56
2021/12/25 07:41:23;;;;;;;4.03;3.83;;;-4.40;4.60;;;;;;6356195;27;20320;-58
2021/12/25 07:44:26;;;;;;;4.40;4.20;;;-4.60;3.80;;;;;;6358472;27;20236;-57
2021/12/25 07:47:31;;;;;;;4.00;3.80;;;-4.30;3.90;;;;;;6354723;27;20327;-57
2021/12/25 07:50:35;;;;;;;3.93;3.93;;;-4.50;4.60;;;;;;6357412;27;20722;-56
2021/12/25 07:53:38;;;;;;;4.10;4.00;;;-4.60;4.50;;;;;;6359187;27;20617;-57
2021/12/25 07:56:41;;;;;;;4.70;4.40;;;-4.20;3.60;;;;;;6358937;27;20464;-57
2021/12/25 07:59:44;;;;;;;5.10;4.90;;;-4.00;3.80;;;;;;6352345;27;20234;-58
2021/12/25 08:02:48;;;;;;;4.60;4.40;;;-4.40;4.20;;;;;;6358713;27;20239;-58
2021/12/25 08:05:51;;;;;;;5.27;4.87;;;-4.20;4.30;;;;;;6351912;27;20831;-58
2021/12/25 08:08:56;;;;;;;5.67;5.27;;;-4.00;5.20;;;;;;6348317;27;20578;-58
2021/12/25 08:12:02;;;;;;;4.63;4.43;;;-4.20;3.00;;;;;;6358592;27;20231;-57
2021/12/25 08:15:05;;;;;;;4.63;4.43;;;-4.00;4.10;;;;;;6350592;27;20820;-58
2021/12/25 08:18:10;;;;;;;4.53;4.43;;;-3.90;4.00;;;;;;6357132;27;20949;-58
2021/12/25 08:21:14;;;;;;;5.33;4.93;;;-3.80;4.20;;;;;;6355103;27;20372;-58
2021/12/25 08:24:18;;;;;;;4.53;4.33;;;-3.80;4.70;;;;;;6357943;27;20677;-58
2021/12/25 08:27:21;;;;;;;4.47;4.37;;;-3.60;3.70;;;;;;6352602;27;20236;-58
2021/12/25 08:30:26;;;;;;;4.80;4.70;;;-3.50;3.40;;;;;;6355973;27;20243;-58
2021/12/25 08:33:30;;;;;;;4.57;4.37;;;-3.60;3.70;;;;;;6357544;27;20530;-58
2021/12/25 08:36:33;;;;;;;4.43;4.33;;;-3.40;2.00;;;;;;6356023;27;20234;-58
2021/12/25 08:39:37;;;;;;;4.57;4.40;;;-3.20;2.40;;;;;;6360138;27;20657;-57
2021/12/25 08:42:45;;;;;;;4.87;4.57;;;-3.40;1.00;;;;;;6358885;27;20628;-57
2021/12/25 08:45:59;;;;;;;4.97;4.67;;;-3.10;1.00;;;;;;6351742;27;20231;-58
2021/12/25 08:49:03;;;;;;;5.13;4.80;;;-3.20;1.00;;;;;;6357986;27;20238;-57
2021/12/25 08:52:09;;;;;;;4.90;4.70;;;-3.00;1.00;;;;;;6357627;27;20654;-58
2021/12/25 08:55:12;;;;;;;5.17;4.87;;;-2.80;1.00;;;;;;6355635;27;20224;-58
2021/12/25 08:58:15;;;;;;;5.27;4.63;;;-2.60;1.00;;;;;;6357262;27;20673;-59
2021/12/25 09:01:18;;;;;;;5.23;5.03;;;-2.50;1.00;;;;;;6357079;27;20322;-57
2021/12/25 09:04:22;;;;;;;5.33;4.90;;;-2.30;1.00;;;;;;6355657;27;20247;-58
2021/12/25 09:07:25;;;;;;;4.27;4.10;;;-2.40;1.00;;;;;;6357806;27;20246;-57
2021/12/25 09:10:29;;;;;;;5.13;4.70;;;-2.20;1.00;;;;;;6358671;27;20282;-58
2021/12/25 09:13:33;;;;;;;5.10;4.80;;;-2.30;1.00;;;;;;6353016;27;20723;-58
2021/12/25 09:16:36;;;;;;;4.70;4.50;;;-2.40;1.00;;;;;;6352198;27;20235;-57
2021/12/25 09:19:41;;;;;;;4.50;4.40;;;-2.50;1.00;;;;;;6358333;27;20303;-59
2021/12/25 09:22:43;;;;;;;4.93;4.60;;;-2.30;1.00;;;;;;6358363;27;20497;-57
2021/12/25 09:25:46;;;;;;;4.70;4.50;;;-2.40;1.00;;;;;;6357320;27;20242;-59
2021/12/25 09:28:49;;;;;;;4.43;4.33;;;-2.10;1.00;;;;;;6356167;27;20710;-57
2021/12/25 09:31:52;;;;;;;4.90;4.70;;;-2.00;1.00;;;;;;6356716;27;20243;-58
2021/12/25 09:35:00;;;;;;;5.07;4.80;;;-2.00;1.00;;;;;;6351299;27;20672;-58
2021/12/25 09:38:03;;;;;;;4.43;4.33;;;-1.90;1.00;;;;;;6354172;27;20478;-57
2021/12/25 09:41:07;;;;;;;5.20;5.00;;;-1.80;1.00;;;;;;6357293;27;20704;-58
2021/12/25 09:44:10;;;;;;;5.33;4.83;;;-1.50;1.00;;;;;;6355996;27;20376;-58
2021/12/25 09:47:13;;;;;;;4.70;4.40;;;-1.50;1.00;;;;;;6357400;27;20239;-58
2021/12/25 09:50:17;;;;;;;5.33;4.83;;;-1.40;1.00;;;;;;6356727;27;20361;-58
2021/12/25 09:53:20;;;;;;;4.73;4.63;;;-1.10;1.00;;;;;;6349696;27;20364;-58
2021/12/25 09:56:23;;;;;;;4.63;4.40;;;-0.90;1.00;;;;;;6358203;27;20233;-60
2021/12/25 09:59:26;;;;;;;7.10;5.03;;;-1.10;1.00;;;;;;6358357;27;20804;-59
2021/12/25 10:02:29;;;;;;;6.03;5.00;;;-1.10;1.00;;;;;;6356632;27;20349;-59
2021/12/25 10:05:35;;;;;;;4.60;4.50;;;-1.20;1.00;;;;;;6365481;27;20734;-60
2021/12/25 10:08:39;;;;;;;5.10;4.70;;;-1.30;1.00;;;;;;6372290;27;20502;-57
2021/12/25 10:11:58;;;;;;;4.33;4.03;;;-1.20;1.00;;;;;;6363105;27;20284;-60
2021/12/25 10:15:01;;;;;;;4.30;4.10;;;-1.30;1.00;;;;;;6361695;27;20334;-57
2021/12/25 10:18:04;;;;;;;4.40;4.20;;;-0.90;1.00;;;;;;6356180;27;20326;-60
2021/12/25 10:21:23;;;;;;;4.57;4.30;;;-0.80;1.00;;;;;;6360086;27;20504;-58
2021/12/25 10:24:28;;;;;;;4.20;4.00;;;-0.60;1.00;;;;;;6358143;27;20231;-58
2021/12/25 10:27:30;;;;;;;4.47;4.37;;;-0.60;1.00;;;;;;6360144;27;20238;-59
2021/12/25 10:30:45;;;;;;;4.87;4.57;;;-0.60;1.00;;;;;;6362280;27;20290;-59
2021/12/25 10:33:51;;;;;;;4.30;4.10;;;-0.60;1.00;;;;;;6357893;27;20784;-62
2021/12/25 10:37:05;;;;;;;5.10;4.70;;;-0.30;1.00;;;;;;6358650;27;20263;-59
2021/12/25 10:40:21;;;;;;;4.97;4.57;;;-0.40;1.00;;;;;;6358680;27;20371;-58
2021/12/25 10:43:23;;;;;;;4.93;4.60;;;-0.30;1.00;;;;;;6360882;27;20472;-58
2021/12/25 10:46:26;;;;;;;4.60;4.30;;;-0.30;1.00;;;;;;6361706;27;20721;-58
2021/12/25 10:49:33;;;;;;;4.97;4.60;;;-0.50;1.00;;;;;;6353472;27;20611;-58
2021/12/25 10:52:41;;;;;;;4.40;4.30;;;-0.10;1.00;;;;;;6360979;27;20749;-58
2021/12/25 10:55:44;;;;;;;4.17;4.03;;;-0.30;1.00;;;;;;6359660;27;20334;-58
2021/12/25 10:58:47;;;;;;;4.43;4.20;;;-0.40;1.00;;;;;;6360416;27;20231;-59
2021/12/25 11:01:51;;;;;;;5.17;4.90;;;-0.30;1.00;;;;;;6360510;27;20279;-59
2021/12/25 11:04:54;;;;;;;4.53;4.40;;;0.10;1.00;;;;;;6358563;27;20231;-58
2021/12/25 11:08:06;;;;;;;5.00;4.77;;;-0.30;1.00;;;;;;6360839;27;20544;-58
2021/12/25 11:11:11;;;;;;;4.57;4.40;;;-0.40;1.00;;;;;;6359677;27;20224;-57
2021/12/25 11:14:14;;;;;;;4.70;4.30;;;-0.20;1.00;;;;;;6355724;27;20411;-58
2021/12/25 11:17:22;;;;;;;4.50;4.20;;;-0.30;1.00;;;;;;6358122;27;20322;-58
2021/12/25 11:20:30;;;;;;;4.50;4.30;;;-0.30;1.00;;;;;;6360109;27;20338;-60
2021/12/25 11:23:34;;;;;;;4.10;4.00;;;0.20;1.00;;;;;;6362527;27;20364;-57
2021/12/25 11:26:38;;;;;;;4.43;4.23;;;0.00;1.00;;;;;;6359663;27;20252;-58
2021/12/25 11:29:41;;;;;;;4.87;4.50;;;0.10;1.00;;;;;;6358405;27;20237;-58
2021/12/25 11:32:44;;;;;;;4.97;4.57;;;0.10;1.00;;;;;;6361906;27;20380;-59
2021/12/25 11:35:47;;;;;;;5.17;4.90;;;0.00;1.00;;;;;;6354855;27;20380;-57
2021/12/25 11:38:52;;;;;;;5.03;4.70;;;0.40;1.00;;;;;;6360945;27;20401;-58
2021/12/25 11:42:01;;;;;;;5.50;5.13;;;0.50;1.00;;;;;;6357874;27;20247;-59
2021/12/25 11:45:16;;;;;;;5.03;4.83;;;0.40;1.00;;;;;;6359106;27;20695;-60
2021/12/25 11:48:21;;;;;;;5.13;4.73;;;0.60;1.00;;;;;;6358420;27;20235;-57
2021/12/25 11:51:28;;;;;;;5.27;5.07;;;0.70;1.00;;;;;;6355283;27;20961;-59
2021/12/25 11:55:00;;;;;;;5.60;5.10;;;0.60;1.00;;;;;;6358480;27;20579;-58
2021/12/25 11:58:18;;;;;;;5.70;5.40;;;0.50;1.00;;;;;;6350157;27;20232;-57
2021/12/25 12:01:30;;;;;;;5.50;5.27;;;0.20;1.00;;;;;;6285853;27;20311;-58
2021/12/25 12:04:33;;;;;;;5.40;4.90;;;0.00;1.00;;;;;;6297976;28;20612;-56
2021/12/25 12:07:57;;;;;;;5.33;5.10;;;0.20;1.00;;;;;;6318947;28;20473;-58
2021/12/25 12:11:01;;;;;;;5.47;5.13;;;0.50;1.00;;;;;;6305887;28;20232;-58
2021/12/25 12:14:16;;;;;;;5.43;4.93;;;0.30;1.00;;;;;;6296165;28;20229;-57
2021/12/25 12:17:30;;;;;;;5.30;4.83;;;0.00;1.00;;;;;;6324435;27;20581;-58
2021/12/25 12:20:38;;;;;;;4.90;4.50;;;0.10;1.00;;;;;;6312988;28;20232;-58
2021/12/25 12:23:52;;;;;;;4.90;4.50;;;-0.10;1.00;;;;;;6306573;28;20233;-58
2021/12/25 12:26:56;;;;;;;4.97;4.60;;;0.10;1.00;;;;;;6300289;28;20340;-58
2021/12/25 12:29:59;;;;;;;5.10;4.83;;;0.10;1.00;;;;;;6309831;27;20319;-58
2021/12/25 12:33:04;;;;;;;5.00;4.63;;;0.30;1.00;;;;;;6342905;27;20365;-58
2021/12/25 12:36:26;;;;;;;5.40;5.10;;;0.10;1.00;;;;;;6257554;27;20231;-56
2021/12/25 12:39:29;;;;;;;4.43;4.33;;;0.20;1.00;;;;;;6329924;28;20255;-58
2021/12/25 12:42:51;;;;;;;4.60;4.50;;;0.00;1.00;;;;;;6323844;28;20500;-57
2021/12/25 12:45:54;;;;;;;4.83;4.53;;;-0.30;1.00;;;;;;6326242;28;20307;-57
2021/12/25 12:49:07;;;;;;;4.80;4.53;;;0.10;1.00;;;;;;6330345;28;20240;-59
2021/12/25 12:52:18;;;;;;;7.13;4.87;;;-0.10;1.00;;;;;;6320058;27;20838;-57
2021/12/25 12:55:27;;;;;;;4.90;4.63;;;0.20;1.00;;;;;;6322101;27;20288;-58
2021/12/25 12:58:32;;;;;;;4.70;4.60;;;0.00;1.00;;;;;;6322525;28;20240;-57
2021/12/25 13:01:34;;;;;;;5.07;4.77;;;0.10;1.00;;;;;;6329287;28;20323;-57
2021/12/25 13:04:45;;;;;;;4.97;4.63;;;-0.10;1.00;;;;;;6331093;28;20235;-58
2021/12/25 13:07:49;;;;;;;4.93;4.63;;;-0.20;1.00;;;;;;6323419;28;20247;-58
2021/12/25 13:11:01;;;;;;;4.60;4.40;;;0.00;1.00;;;;;;6324954;28;20783;-57
2021/12/25 13:14:05;;;;;;;4.73;4.53;;;-0.10;1.00;;;;;;6331879;28;20362;-56
2021/12/25 13:17:09;;;;;;;5.00;4.63;;;0.00;1.00;;;;;;6325501;28;20457;-57
2021/12/25 13:20:11;;;;;;;5.57;5.07;;;0.00;1.00;;;;;;6324347;28;20327;-57
2021/12/25 13:23:17;;;;;;;5.30;5.00;;;0.00;1.00;;;;;;6326823;28;20609;-58
2021/12/25 13:26:22;;;;;;;5.17;4.80;;;0.00;1.00;;;;;;6256947;28;20346;-59
2021/12/25 13:29:28;;;;;;;6.87;5.30;;;0.20;1.00;;;;;;6330193;28;20311;-57
2021/12/25 13:32:31;;;;;;;4.93;4.63;;;0.00;1.00;;;;;;6329997;28;20236;-57
2021/12/25 13:35:33;;;;;;;4.87;4.40;;;0.00;1.00;;;;;;6321932;28;20377;-58
2021/12/25 13:38:48;;;;;;;4.93;4.60;;;0.20;1.00;;;;;;6330981;28;20474;-57
2021/12/25 13:41:53;;;;;;;5.10;4.90;;;0.00;1.00;;;;;;6323878;27;20773;-57
2021/12/25 13:44:57;;;;;;;5.00;4.70;;;-0.20;1.00;;;;;;6331072;28;20796;-56
2021/12/25 13:48:02;;;;;;;4.43;4.33;;;0.00;1.00;;;;;;6330525;27;20393;-58
2021/12/25 13:51:05;;;;;;;4.63;4.47;;;0.00;1.00;;;;;;6330947;28;20262;-58
2021/12/25 13:54:07;;;;;;;4.90;4.67;;;-0.40;1.00;;;;;;6321771;28;20872;-57
2021/12/25 13:57:12;;;;;;;5.13;4.80;;;-0.20;1.00;;;;;;6335843;28;20242;-57
2021/12/25 14:00:19;;;;;;;4.63;4.40;;;-0.10;1.00;;;;;;6337082;27;20245;-59
2021/12/25 14:03:25;;;;;;;4.47;4.37;;;-0.20;1.00;;;;;;6336301;27;20228;-57
2021/12/25 14:06:28;;;;;;;5.80;5.20;;;-0.30;1.00;;;;;;6336765;28;20364;-59
2021/12/25 14:09:31;;;;;;;4.80;4.60;;;-0.40;1.00;;;;;;6334995;28;20231;-57
2021/12/25 14:12:34;;;;;;;4.53;4.40;;;-0.30;1.00;;;;;;6333574;28;20259;-57
2021/12/25 14:15:42;;;;;;;5.00;4.60;;;-0.50;1.00;;;;;;6268384;27;20293;-56
2021/12/25 14:18:45;;;;;;;4.23;4.07;;;-0.70;1.00;;;;;;6314315;28;20243;-58
2021/12/25 14:21:53;;;;;;;4.80;4.50;;;-0.50;1.00;;;;;;6321340;27;20232;-58
2021/12/25 14:24:56;;;;;;;4.90;4.57;;;-0.60;1.00;;;;;;6333710;27;20366;-58
2021/12/25 14:28:05;;;;;;;4.30;4.20;;;-0.60;1.00;;;;;;6331533;27;20239;-58
2021/12/25 14:31:12;;;;;;;4.63;4.43;;;-0.70;1.00;;;;;;6332302;27;20387;-58
2021/12/25 14:34:15;;;;;;;4.57;4.37;;;-0.90;1.00;;;;;;6332642;27;20766;-58
2021/12/25 14:37:18;;;;;;;4.20;4.10;;;-0.90;1.00;;;;;;6332972;28;20389;-58
2021/12/25 14:40:23;;;;;;;4.10;4.00;;;-1.00;1.00;;;;;;6331004;27;20252;-58
2021/12/25 14:43:31;;;;;;;4.70;4.50;;;-0.90;1.00;;;;;;6335859;27;20316;-57
2021/12/25 14:46:35;;;;;;;5.13;4.67;;;-1.30;1.00;;;;;;6323607;28;20305;-57
2021/12/25 14:49:40;;;;;;;4.93;4.63;;;-1.20;1.00;;;;;;6324407;28;20757;-56
2021/12/25 14:52:43;;;;;;;5.13;4.93;;;-1.40;1.00;;;;;;6327949;27;20377;-56
2021/12/25 14:55:48;;;;;;;6.90;6.30;;;-1.50;1.00;;;;;;6333348;28;20319;-57
2021/12/25 14:58:53;;;;;;;11.17;8.57;;;-1.30;1.00;;;;;;6334330;28;20287;-57
2021/12/25 15:02:00;;;;;;;15.60;10.67;;;-1.60;1.00;;;;;;6336742;27;20236;-58
2021/12/25 15:05:05;;;;;;;13.07;9.07;;;-1.60;1.00;;;;;;6327032;27;20228;-57
2021/12/25 15:08:20;;;;;;;12.77;10.00;;;-1.60;1.00;;;;;;6340447;27;20236;-57
2021/12/25 15:11:22;;;;;;;6.03;5.63;;;-1.60;1.00;;;;;;6330167;27;20321;-57
2021/12/25 15:14:28;;;;;;;5.33;5.10;;;-1.60;1.00;;;;;;6330244;27;20893;-57
2021/12/25 15:17:33;;;;;;;6.23;5.80;;;-1.70;1.00;;;;;;6333222;27;20276;-57
2021/12/25 15:20:35;;;;;;;6.47;6.00;;;-1.70;1.00;;;;;;6329816;27;20323;-57
2021/12/25 15:23:39;;;;;;;6.00;5.70;;;-1.50;1.00;;;;;;6332527;27;20232;-56
2021/12/25 15:26:44;;;;;;;5.77;5.53;;;-1.40;1.00;;;;;;6322641;28;20267;-56
2021/12/25 15:29:50;;;;;;;5.70;5.40;;;-1.70;1.00;;;;;;6332740;28;20230;-56
2021/12/25 15:32:56;;;;;;;5.23;4.97;;;-1.80;1.00;;;;;;6321104;28;20364;-57
2021/12/25 15:35:59;;;;;;;5.40;5.20;;;-1.80;1.00;;;;;;6317861;27;20240;-57
2021/12/25 15:39:11;;;;;;;5.60;5.20;;;-1.60;1.00;;;;;;6326020;28;20626;-57
2021/12/25 15:42:14;;;;;;;5.53;5.20;;;-1.70;1.00;;;;;;6324108;27;20262;-56
2021/12/25 15:45:18;;;;;;;6.40;6.00;;;-1.80;1.00;;;;;;6324244;28;20264;-58
2021/12/25 15:48:22;;;;;;;6.97;6.63;;;-1.90;1.00;;;;;;6321522;28;20232;-57
2021/12/25 15:51:28;;;;;;;7.43;6.77;;;-2.00;1.00;;;;;;6330660;27;20312;-56
2021/12/25 15:54:31;;;;;;;7.43;6.73;;;-2.00;1.00;;;;;;6324332;28;20404;-57
2021/12/25 15:57:35;;;;;;;8.13;7.40;;;-2.10;1.00;;;;;;6331364;28;20242;-56
2021/12/25 16:00:40;;;;;;;9.27;8.57;;;-2.10;1.00;;;;;;6328559;28;20310;-56
2021/12/25 16:03:45;;;;;;;14.40;9.40;;;-2.00;1.00;;;;;;6323846;27;20318;-57
2021/12/25 16:06:48;;;;;;;13.63;9.10;;;-2.20;1.00;;;;;;6325584;28;20381;-58
2021/12/25 16:09:51;;;;;;;12.83;10.03;;;-2.10;1.00;;;;;;6330599;27;20295;-56
2021/12/25 16:12:54;;;;;;;10.90;8.80;;;-2.30;1.00;;;;;;6325709;27;20463;-55
2021/12/25 16:15:57;;;;;;;13.53;9.73;;;-2.20;1.00;;;;;;6327170;27;20322;-58
2021/12/25 16:19:01;;;;;;;11.03;8.80;;;-2.40;1.00;;;;;;6323596;27;20232;-56
2021/12/25 16:22:05;;;;;;;9.73;8.63;;;-2.30;1.00;;;;;;6329669;27;20386;-58
2021/12/25 16:25:09;;;;;;;9.73;8.70;;;-2.20;1.00;;;;;;6334070;27;20235;-56
2021/12/25 16:28:13;;;;;;;8.60;7.80;;;-2.60;1.00;;;;;;6333122;28;20292;-56
2021/12/25 16:31:16;;;;;;;8.00;6.80;;;-2.40;1.00;;;;;;6330031;27;20284;-57
2021/12/25 16:34:20;;;;;;;6.80;6.30;;;-2.40;1.00;;;;;;6327430;28;20300;-56
2021/12/25 16:37:22;;;;;;;7.10;6.60;;;-2.20;1.00;;;;;;6327472;28;20539;-56
2021/12/25 16:40:25;;;;;;;6.57;6.07;;;-2.50;1.00;;;;;;6329492;28;20275;-57
2021/12/25 16:43:30;;;;;;;6.50;6.13;;;-2.40;1.00;;;;;;6331219;28;20265;-57
2021/12/25 16:46:32;;;;;;;6.57;6.17;;;-2.60;1.00;;;;;;6323361;27;20319;-57
2021/12/25 16:49:37;;;;;;;7.40;6.83;;;-2.50;1.00;;;;;;6322318;28;20241;-56
2021/12/25 16:52:40;;;;;;;7.30;6.67;;;-2.60;1.00;;;;;;6325373;28;20240;-57
2021/12/25 16:55:43;;;;;;;7.27;6.73;;;-2.70;1.00;;;;;;6319758;28;20686;-56
2021/12/25 16:58:46;;;;;;;7.03;6.43;;;-2.60;1.00;;;;;;6324967;28;20312;-56
2021/12/25 17:01:49;;;;;;;7.30;6.80;;;-2.50;1.00;;;;;;6321085;28;20335;-57
2021/12/25 17:04:53;;;;;;;6.17;5.87;;;-2.80;1.00;;;;;;6311096;28;20256;-56
2021/12/25 17:07:57;;;;;;;7.00;6.53;;;-2.70;1.00;;;;;;6328853;28;20319;-58